sensor_id;sensor_type;location;lat;lon;timestamp;temperature;humidity
38456;DHT22;24237;50.106;20.014;2023-05-10T00:01:23;9.70;99.90
38456;DHT22;24237;50.106;20.014;2023-05-10T00:03:49;9.70;99.90
38456;DHT22;24237;50.106;20.014;2023-05-10T00:06:15;9.60;99.90
38456;DHT22;24237;50.106;20.014;2023-05-10T00:08:41;9.60;99.90
38456;DHT22;24237;50.106;20.014;2023-05-10T00:11:06;9.60;99.90
38456;DHT22;24237;50.106;20.014;2023-05-10T00:13:32;9.60;99.90
38456;DHT22;24237;50.106;20.014;2023-05-10T00:15:58;9.50;99.90
38456;DHT22;24237;50.106;20.014;2023-05-10T00:18:24;9.70;99.90
38456;DHT22;24237;50.106;20.014;2023-05-10T00:20:49;9.60;99.90
38456;DHT22;24237;50.106;20.014;2023-05-10T00:23:15;9.60;99.90
38456;DHT22;24237;50.106;20.014;2023-05-10T00:25:41;9.60;99.90
38456;DHT22;24237;50.106;20.014;2023-05-10T00:28:07;9.50;99.90
38456;DHT22;24237;50.106;20.014;2023-05-10T00:30:52;9.60;99.90
38456;DHT22;24237;50.106;20.014;2023-05-10T00:33:18;9.80;99.90
38456;DHT22;24237;50.106;20.014;2023-05-10T00:35:43;9.70;99.90
38456;DHT22;24237;50.106;20.014;2023-05-10T00:38:09;9.80;99.90
38456;DHT22;24237;50.106;20.014;2023-05-10T00:40:36;9.90;99.90
38456;DHT22;24237;50.106;20.014;2023-05-10T00:43:03;9.90;99.90
38456;DHT22;24237;50.106;20.014;2023-05-10T00:45:30;9.80;99.90
38456;DHT22;24237;50.106;20.014;2023-05-10T00:47:56;9.70;99.90
38456;DHT22;24237;50.106;20.014;2023-05-10T00:50:22;9.50;99.90
38456;DHT22;24237;50.106;20.014;2023-05-10T00:52:49;9.50;99.90
38456;DHT22;24237;50.106;20.014;2023-05-10T00:55:15;9.30;99.90
38456;DHT22;24237;50.106;20.014;2023-05-10T00:57:41;9.50;99.90
38456;DHT22;24237;50.106;20.014;2023-05-10T01:00:08;9.60;99.90
38456;DHT22;24237;50.106;20.014;2023-05-10T01:02:35;9.50;99.90
38456;DHT22;24237;50.106;20.014;2023-05-10T01:05:02;9.50;99.90
38456;DHT22;24237;50.106;20.014;2023-05-10T01:07:29;9.60;99.90
38456;DHT22;24237;50.106;20.014;2023-05-10T01:09:55;9.80;99.90
38456;DHT22;24237;50.106;20.014;2023-05-10T01:12:21;9.70;99.90
38456;DHT22;24237;50.106;20.014;2023-05-10T01:14:47;9.50;99.90
38456;DHT22;24237;50.106;20.014;2023-05-10T01:17:13;9.60;99.90
38456;DHT22;24237;50.106;20.014;2023-05-10T01:19:39;9.60;99.90
38456;DHT22;24237;50.106;20.014;2023-05-10T01:33:24;9.40;99.90
38456;DHT22;24237;50.106;20.014;2023-05-10T01:36:08;9.50;99.90
38456;DHT22;24237;50.106;20.014;2023-05-10T01:38:43;9.30;99.90
38456;DHT22;24237;50.106;20.014;2023-05-10T01:41:43;9.30;99.90
38456;DHT22;24237;50.106;20.014;2023-05-10T01:44:34;9.50;99.90
38456;DHT22;24237;50.106;20.014;2023-05-10T01:47:10;9.40;99.90
38456;DHT22;24237;50.106;20.014;2023-05-10T01:49:43;9.20;99.90
38456;DHT22;24237;50.106;20.014;2023-05-10T01:52:15;9.30;99.90
38456;DHT22;24237;50.106;20.014;2023-05-10T01:54:48;9.30;99.90
38456;DHT22;24237;50.106;20.014;2023-05-10T01:57:16;9.40;99.90
38456;DHT22;24237;50.106;20.014;2023-05-10T01:59:46;9.30;99.90
38456;DHT22;24237;50.106;20.014;2023-05-10T02:02:15;9.20;99.90
38456;DHT22;24237;50.106;20.014;2023-05-10T02:04:42;9.20;99.90
38456;DHT22;24237;50.106;20.014;2023-05-10T02:07:09;9.20;99.90
38456;DHT22;24237;50.106;20.014;2023-05-10T02:09:36;9.10;99.90
38456;DHT22;24237;50.106;20.014;2023-05-10T02:12:04;9.10;99.90
38456;DHT22;24237;50.106;20.014;2023-05-10T02:14:33;8.80;99.90
38456;DHT22;24237;50.106;20.014;2023-05-10T02:17:00;9.00;99.90
38456;DHT22;24237;50.106;20.014;2023-05-10T02:19:28;9.10;99.90
38456;DHT22;24237;50.106;20.014;2023-05-10T02:21:55;9.00;99.90
38456;DHT22;24237;50.106;20.014;2023-05-10T02:24:24;8.90;99.90
38456;DHT22;24237;50.106;20.014;2023-05-10T02:26:51;8.80;99.90
38456;DHT22;24237;50.106;20.014;2023-05-10T02:29:19;8.60;99.90
38456;DHT22;24237;50.106;20.014;2023-05-10T02:32:05;8.50;99.90
38456;DHT22;24237;50.106;20.014;2023-05-10T02:34:33;8.30;99.90
38456;DHT22;24237;50.106;20.014;2023-05-10T02:36:59;8.30;99.90
38456;DHT22;24237;50.106;20.014;2023-05-10T02:39:26;8.20;99.90
38456;DHT22;24237;50.106;20.014;2023-05-10T02:41:54;8.30;99.90
38456;DHT22;24237;50.106;20.014;2023-05-10T02:44:22;8.30;99.90
38456;DHT22;24237;50.106;20.014;2023-05-10T02:46:48;8.30;99.90
38456;DHT22;24237;50.106;20.014;2023-05-10T02:49:33;8.30;99.90
38456;DHT22;24237;50.106;20.014;2023-05-10T02:52:04;8.60;99.90
38456;DHT22;24237;50.106;20.014;2023-05-10T02:54:33;8.60;99.90
38456;DHT22;24237;50.106;20.014;2023-05-10T02:57:04;8.70;99.90
38456;DHT22;24237;50.106;20.014;2023-05-10T02:59:31;8.40;99.90
38456;DHT22;24237;50.106;20.014;2023-05-10T03:01:59;8.30;99.90
38456;DHT22;24237;50.106;20.014;2023-05-10T03:04:28;8.40;99.90
38456;DHT22;24237;50.106;20.014;2023-05-10T03:06:54;8.70;99.90
38456;DHT22;24237;50.106;20.014;2023-05-10T03:09:20;8.60;99.90
38456;DHT22;24237;50.106;20.014;2023-05-10T03:17:22;8.50;99.90
38456;DHT22;24237;50.106;20.014;2023-05-10T03:19:55;8.30;99.90
38456;DHT22;24237;50.106;20.014;2023-05-10T03:22:26;8.20;99.90
38456;DHT22;24237;50.106;20.014;2023-05-10T03:24:56;8.20;99.90
38456;DHT22;24237;50.106;20.014;2023-05-10T03:27:25;8.50;99.90
38456;DHT22;24237;50.106;20.014;2023-05-10T03:29:53;8.40;99.90
38456;DHT22;24237;50.106;20.014;2023-05-10T03:32:18;8.30;99.90
38456;DHT22;24237;50.106;20.014;2023-05-10T03:34:44;8.30;99.90
38456;DHT22;24237;50.106;20.014;2023-05-10T03:37:10;8.40;99.90
38456;DHT22;24237;50.106;20.014;2023-05-10T03:39:36;8.50;99.90
38456;DHT22;24237;50.106;20.014;2023-05-10T03:42:01;8.90;99.90
38456;DHT22;24237;50.106;20.014;2023-05-10T03:44:27;8.80;99.90
38456;DHT22;24237;50.106;20.014;2023-05-10T03:46:53;9.10;99.90
38456;DHT22;24237;50.106;20.014;2023-05-10T03:49:19;9.20;99.90
38456;DHT22;24237;50.106;20.014;2023-05-10T03:51:44;9.30;99.90
38456;DHT22;24237;50.106;20.014;2023-05-10T03:54:10;9.20;99.90
38456;DHT22;24237;50.106;20.014;2023-05-10T03:56:35;9.20;99.90
38456;DHT22;24237;50.106;20.014;2023-05-10T03:59:01;9.30;99.90
38456;DHT22;24237;50.106;20.014;2023-05-10T04:01:33;9.50;99.90
38456;DHT22;24237;50.106;20.014;2023-05-10T04:03:58;9.40;99.90
38456;DHT22;24237;50.106;20.014;2023-05-10T04:06:24;9.30;99.90
38456;DHT22;24237;50.106;20.014;2023-05-10T04:08:50;9.40;99.90
38456;DHT22;24237;50.106;20.014;2023-05-10T04:11:15;9.60;99.90
38456;DHT22;24237;50.106;20.014;2023-05-10T04:13:41;9.70;99.90
38456;DHT22;24237;50.106;20.014;2023-05-10T04:16:08;9.70;99.90
38456;DHT22;24237;50.106;20.014;2023-05-10T04:18:34;9.90;99.90
38456;DHT22;24237;50.106;20.014;2023-05-10T04:21:00;9.80;99.90
38456;DHT22;24237;50.106;20.014;2023-05-10T04:23:27;10.00;99.90
38456;DHT22;24237;50.106;20.014;2023-05-10T04:25:58;10.00;99.90
38456;DHT22;24237;50.106;20.014;2023-05-10T04:28:24;10.10;99.90
38456;DHT22;24237;50.106;20.014;2023-05-10T04:30:49;10.40;99.90
38456;DHT22;24237;50.106;20.014;2023-05-10T04:33:15;10.80;99.90
38456;DHT22;24237;50.106;20.014;2023-05-10T04:35:41;10.60;99.90
38456;DHT22;24237;50.106;20.014;2023-05-10T04:41:16;10.90;99.90
38456;DHT22;24237;50.106;20.014;2023-05-10T04:43:41;11.00;99.90
38456;DHT22;24237;50.106;20.014;2023-05-10T04:46:07;11.20;99.90
38456;DHT22;24237;50.106;20.014;2023-05-10T04:48:33;11.40;99.90
38456;DHT22;24237;50.106;20.014;2023-05-10T04:50:59;11.50;99.90
38456;DHT22;24237;50.106;20.014;2023-05-10T04:53:24;11.40;99.90
38456;DHT22;24237;50.106;20.014;2023-05-10T04:55:50;11.30;99.90
38456;DHT22;24237;50.106;20.014;2023-05-10T04:58:16;11.10;99.90
38456;DHT22;24237;50.106;20.014;2023-05-10T05:00:42;11.20;99.90
38456;DHT22;24237;50.106;20.014;2023-05-10T05:03:07;11.30;99.90
38456;DHT22;24237;50.106;20.014;2023-05-10T05:05:33;11.60;99.90
38456;DHT22;24237;50.106;20.014;2023-05-10T05:07:59;11.80;99.90
38456;DHT22;24237;50.106;20.014;2023-05-10T05:10:24;11.70;99.90
38456;DHT22;24237;50.106;20.014;2023-05-10T05:12:50;11.70;99.90
38456;DHT22;24237;50.106;20.014;2023-05-10T05:15:16;11.60;99.90
38456;DHT22;24237;50.106;20.014;2023-05-10T05:17:42;11.80;99.90
38456;DHT22;24237;50.106;20.014;2023-05-10T05:20:08;11.90;99.90
38456;DHT22;24237;50.106;20.014;2023-05-10T05:22:36;12.30;99.90
38456;DHT22;24237;50.106;20.014;2023-05-10T05:25:02;12.40;99.90
38456;DHT22;24237;50.106;20.014;2023-05-10T05:27:29;12.50;99.90
38456;DHT22;24237;50.106;20.014;2023-05-10T05:29:58;12.80;99.90
38456;DHT22;24237;50.106;20.014;2023-05-10T05:32:24;12.80;99.90
38456;DHT22;24237;50.106;20.014;2023-05-10T05:34:50;12.70;99.90
38456;DHT22;24237;50.106;20.014;2023-05-10T05:37:20;13.00;99.90
38456;DHT22;24237;50.106;20.014;2023-05-10T05:39:47;12.80;99.90
38456;DHT22;24237;50.106;20.014;2023-05-10T05:42:13;13.10;99.90
38456;DHT22;24237;50.106;20.014;2023-05-10T05:44:40;12.90;99.90
38456;DHT22;24237;50.106;20.014;2023-05-10T05:47:06;13.00;99.90
38456;DHT22;24237;50.106;20.014;2023-05-10T05:49:32;13.10;99.90
38456;DHT22;24237;50.106;20.014;2023-05-10T05:52:01;12.90;99.90
38456;DHT22;24237;50.106;20.014;2023-05-10T05:54:27;12.80;99.90
38456;DHT22;24237;50.106;20.014;2023-05-10T05:56:59;12.80;99.90
38456;DHT22;24237;50.106;20.014;2023-05-10T05:59:25;13.10;99.90
38456;DHT22;24237;50.106;20.014;2023-05-10T06:01:51;13.40;99.90
38456;DHT22;24237;50.106;20.014;2023-05-10T06:04:17;13.40;99.90
38456;DHT22;24237;50.106;20.014;2023-05-10T06:06:43;13.50;99.90
38456;DHT22;24237;50.106;20.014;2023-05-10T06:09:08;13.80;99.90
38456;DHT22;24237;50.106;20.014;2023-05-10T06:11:35;13.90;99.90
38456;DHT22;24237;50.106;20.014;2023-05-10T06:14:01;14.00;99.90
38456;DHT22;24237;50.106;20.014;2023-05-10T06:16:27;14.00;99.90
38456;DHT22;24237;50.106;20.014;2023-05-10T06:18:53;13.90;99.90
38456;DHT22;24237;50.106;20.014;2023-05-10T06:21:19;13.80;99.90
38456;DHT22;24237;50.106;20.014;2023-05-10T06:23:44;13.90;99.90
38456;DHT22;24237;50.106;20.014;2023-05-10T06:26:10;14.40;99.90
38456;DHT22;24237;50.106;20.014;2023-05-10T06:28:36;14.60;99.90
38456;DHT22;24237;50.106;20.014;2023-05-10T06:31:05;14.60;99.90
38456;DHT22;24237;50.106;20.014;2023-05-10T06:33:31;14.60;99.90
38456;DHT22;24237;50.106;20.014;2023-05-10T06:35:56;14.80;99.90
38456;DHT22;24237;50.106;20.014;2023-05-10T06:38:22;14.40;99.90
38456;DHT22;24237;50.106;20.014;2023-05-10T06:40:48;14.50;99.90
38456;DHT22;24237;50.106;20.014;2023-05-10T06:43:14;14.80;99.90
38456;DHT22;24237;50.106;20.014;2023-05-10T06:45:45;15.30;99.90
38456;DHT22;24237;50.106;20.014;2023-05-10T06:48:11;15.40;99.90
38456;DHT22;24237;50.106;20.014;2023-05-10T06:50:37;15.50;99.90
38456;DHT22;24237;50.106;20.014;2023-05-10T06:53:02;15.50;99.90
38456;DHT22;24237;50.106;20.014;2023-05-10T06:55:28;15.50;99.90
38456;DHT22;24237;50.106;20.014;2023-05-10T06:57:54;15.60;99.90
38456;DHT22;24237;50.106;20.014;2023-05-10T07:00:20;15.80;99.50
38456;DHT22;24237;50.106;20.014;2023-05-10T07:02:46;15.70;99.60
38456;DHT22;24237;50.106;20.014;2023-05-10T07:05:12;15.80;99.90
38456;DHT22;24237;50.106;20.014;2023-05-10T07:07:38;16.00;99.90
38456;DHT22;24237;50.106;20.014;2023-05-10T07:10:05;16.40;99.20
38456;DHT22;24237;50.106;20.014;2023-05-10T07:12:31;16.40;99.30
38456;DHT22;24237;50.106;20.014;2023-05-10T07:14:56;15.90;99.40
38456;DHT22;24237;50.106;20.014;2023-05-10T07:17:22;16.10;99.30
38456;DHT22;24237;50.106;20.014;2023-05-10T07:19:48;16.10;99.10
38456;DHT22;24237;50.106;20.014;2023-05-10T07:22:14;16.00;99.70
38456;DHT22;24237;50.106;20.014;2023-05-10T07:24:40;16.10;99.80
38456;DHT22;24237;50.106;20.014;2023-05-10T07:27:06;16.30;99.60
38456;DHT22;24237;50.106;20.014;2023-05-10T07:29:32;15.80;99.90
38456;DHT22;24237;50.106;20.014;2023-05-10T07:31:57;15.80;99.90
38456;DHT22;24237;50.106;20.014;2023-05-10T07:34:23;16.20;99.90
38456;DHT22;24237;50.106;20.014;2023-05-10T07:36:48;16.50;99.90
38456;DHT22;24237;50.106;20.014;2023-05-10T07:39:14;16.70;99.90
38456;DHT22;24237;50.106;20.014;2023-05-10T07:41:42;16.90;99.50
38456;DHT22;24237;50.106;20.014;2023-05-10T07:44:08;17.00;99.30
38456;DHT22;24237;50.106;20.014;2023-05-10T07:46:34;17.10;98.80
38456;DHT22;24237;50.106;20.014;2023-05-10T07:48:59;16.80;99.40
38456;DHT22;24237;50.106;20.014;2023-05-10T07:51:25;17.00;99.20
38456;DHT22;24237;50.106;20.014;2023-05-10T07:53:51;17.10;99.00
38456;DHT22;24237;50.106;20.014;2023-05-10T07:56:24;17.50;98.70
38456;DHT22;24237;50.106;20.014;2023-05-10T07:58:51;17.50;98.80
38456;DHT22;24237;50.106;20.014;2023-05-10T08:01:17;17.80;98.30
38456;DHT22;24237;50.106;20.014;2023-05-10T08:03:42;17.80;97.70
38456;DHT22;24237;50.106;20.014;2023-05-10T08:06:08;17.90;97.80
38456;DHT22;24237;50.106;20.014;2023-05-10T08:08:34;18.20;97.40
38456;DHT22;24237;50.106;20.014;2023-05-10T08:10:59;18.40;96.70
38456;DHT22;24237;50.106;20.014;2023-05-10T08:13:25;18.20;96.40
38456;DHT22;24237;50.106;20.014;2023-05-10T08:15:51;18.30;96.20
38456;DHT22;24237;50.106;20.014;2023-05-10T08:18:18;18.60;96.00
38456;DHT22;24237;50.106;20.014;2023-05-10T08:20:44;18.40;94.90
38456;DHT22;24237;50.106;20.014;2023-05-10T08:23:12;18.30;94.80
38456;DHT22;24237;50.106;20.014;2023-05-10T08:25:37;18.50;94.70
38456;DHT22;24237;50.106;20.014;2023-05-10T08:28:03;18.50;94.40
38456;DHT22;24237;50.106;20.014;2023-05-10T08:30:29;18.30;94.20
38456;DHT22;24237;50.106;20.014;2023-05-10T08:32:55;18.30;93.80
38456;DHT22;24237;50.106;20.014;2023-05-10T08:35:20;18.60;94.30
38456;DHT22;24237;50.106;20.014;2023-05-10T08:37:50;18.90;94.10
38456;DHT22;24237;50.106;20.014;2023-05-10T08:40:16;19.30;93.20
38456;DHT22;24237;50.106;20.014;2023-05-10T08:42:51;19.00;91.60
38456;DHT22;24237;50.106;20.014;2023-05-10T08:45:20;19.10;91.70
38456;DHT22;24237;50.106;20.014;2023-05-10T08:47:47;19.20;91.90
38456;DHT22;24237;50.106;20.014;2023-05-10T08:50:15;19.40;91.60
38456;DHT22;24237;50.106;20.014;2023-05-10T08:52:41;19.40;89.70
38456;DHT22;24237;50.106;20.014;2023-05-10T08:55:08;19.10;90.20
38456;DHT22;24237;50.106;20.014;2023-05-10T08:57:34;19.10;91.00
38456;DHT22;24237;50.106;20.014;2023-05-10T09:00:01;19.60;91.10
38456;DHT22;24237;50.106;20.014;2023-05-10T09:02:27;19.90;90.20
38456;DHT22;24237;50.106;20.014;2023-05-10T09:04:52;19.90;88.80
38456;DHT22;24237;50.106;20.014;2023-05-10T09:07:18;19.80;88.60
38456;DHT22;24237;50.106;20.014;2023-05-10T09:09:45;19.60;87.80
38456;DHT22;24237;50.106;20.014;2023-05-10T09:12:12;19.10;89.20
38456;DHT22;24237;50.106;20.014;2023-05-10T09:14:38;19.00;88.40
38456;DHT22;24237;50.106;20.014;2023-05-10T09:17:04;19.00;85.70
38456;DHT22;24237;50.106;20.014;2023-05-10T09:19:30;19.00;85.70
38456;DHT22;24237;50.106;20.014;2023-05-10T09:21:56;19.20;85.50
38456;DHT22;24237;50.106;20.014;2023-05-10T09:24:25;19.30;86.00
38456;DHT22;24237;50.106;20.014;2023-05-10T09:26:52;19.70;86.60
38456;DHT22;24237;50.106;20.014;2023-05-10T09:29:18;19.80;85.30
38456;DHT22;24237;50.106;20.014;2023-05-10T09:31:49;19.30;86.00
38456;DHT22;24237;50.106;20.014;2023-05-10T09:34:19;19.40;84.90
38456;DHT22;24237;50.106;20.014;2023-05-10T09:36:53;19.60;83.70
38456;DHT22;24237;50.106;20.014;2023-05-10T09:39:19;19.50;85.40
38456;DHT22;24237;50.106;20.014;2023-05-10T09:41:45;19.50;84.90
38456;DHT22;24237;50.106;20.014;2023-05-10T09:44:14;19.50;83.80
38456;DHT22;24237;50.106;20.014;2023-05-10T09:46:43;19.20;84.60
38456;DHT22;24237;50.106;20.014;2023-05-10T09:49:08;19.20;84.60
38456;DHT22;24237;50.106;20.014;2023-05-10T09:51:35;19.30;83.30
38456;DHT22;24237;50.106;20.014;2023-05-10T09:54:14;19.60;82.40
38456;DHT22;24237;50.106;20.014;2023-05-10T09:56:41;19.70;82.70
38456;DHT22;24237;50.106;20.014;2023-05-10T09:59:10;19.80;82.30
38456;DHT22;24237;50.106;20.014;2023-05-10T10:01:37;20.00;82.70
38456;DHT22;24237;50.106;20.014;2023-05-10T10:04:08;20.00;82.30
38456;DHT22;24237;50.106;20.014;2023-05-10T10:06:38;20.00;81.40
38456;DHT22;24237;50.106;20.014;2023-05-10T10:09:04;19.90;79.70
38456;DHT22;24237;50.106;20.014;2023-05-10T10:11:31;19.90;81.60
38456;DHT22;24237;50.106;20.014;2023-05-10T10:13:56;20.20;81.10
38456;DHT22;24237;50.106;20.014;2023-05-10T10:16:22;20.50;79.90
38456;DHT22;24237;50.106;20.014;2023-05-10T10:18:49;20.60;77.20
38456;DHT22;24237;50.106;20.014;2023-05-10T10:21:15;20.70;78.00
38456;DHT22;24237;50.106;20.014;2023-05-10T10:23:41;20.50;75.80
38456;DHT22;24237;50.106;20.014;2023-05-10T10:26:06;20.10;77.30
38456;DHT22;24237;50.106;20.014;2023-05-10T10:28:40;20.10;79.40
38456;DHT22;24237;50.106;20.014;2023-05-10T10:34:09;20.80;76.30
38456;DHT22;24237;50.106;20.014;2023-05-10T10:36:46;20.80;77.80
38456;DHT22;24237;50.106;20.014;2023-05-10T10:39:12;21.20;74.80
38456;DHT22;24237;50.106;20.014;2023-05-10T10:41:50;21.10;72.30
38456;DHT22;24237;50.106;20.014;2023-05-10T10:47:00;21.10;76.10
38456;DHT22;24237;50.106;20.014;2023-05-10T10:49:27;21.10;75.20
38456;DHT22;24237;50.106;20.014;2023-05-10T10:57:50;21.80;75.80
38456;DHT22;24237;50.106;20.014;2023-05-10T11:00:36;22.00;74.30
38456;DHT22;24237;50.106;20.014;2023-05-10T11:03:09;21.50;74.60
38456;DHT22;24237;50.106;20.014;2023-05-10T11:05:50;21.60;74.90
38456;DHT22;24237;50.106;20.014;2023-05-10T11:08:28;21.80;72.30
38456;DHT22;24237;50.106;20.014;2023-05-10T11:13:41;21.60;73.10
38456;DHT22;24237;50.106;20.014;2023-05-10T11:19:05;22.00;72.10
38456;DHT22;24237;50.106;20.014;2023-05-10T11:21:34;22.20;71.70
38456;DHT22;24237;50.106;20.014;2023-05-10T11:24:01;22.60;69.70
38456;DHT22;24237;50.106;20.014;2023-05-10T11:26:33;22.70;68.80
38456;DHT22;24237;50.106;20.014;2023-05-10T11:28:59;23.00;69.20
38456;DHT22;24237;50.106;20.014;2023-05-10T11:31:26;22.70;70.30
38456;DHT22;24237;50.106;20.014;2023-05-10T11:33:57;22.80;71.10
38456;DHT22;24237;50.106;20.014;2023-05-10T11:36:26;23.00;69.30
38456;DHT22;24237;50.106;20.014;2023-05-10T11:38:53;22.80;67.50
38456;DHT22;24237;50.106;20.014;2023-05-10T11:41:19;22.60;66.90
38456;DHT22;24237;50.106;20.014;2023-05-10T11:43:52;22.30;68.20
38456;DHT22;24237;50.106;20.014;2023-05-10T11:46:20;22.70;68.80
38456;DHT22;24237;50.106;20.014;2023-05-10T11:48:48;23.20;68.60
38456;DHT22;24237;50.106;20.014;2023-05-10T11:51:15;22.50;68.00
38456;DHT22;24237;50.106;20.014;2023-05-10T11:53:41;21.90;69.70
38456;DHT22;24237;50.106;20.014;2023-05-10T11:56:09;21.90;70.00
38456;DHT22;24237;50.106;20.014;2023-05-10T11:58:36;22.60;70.70
38456;DHT22;24237;50.106;20.014;2023-05-10T12:01:02;23.00;69.00
38456;DHT22;24237;50.106;20.014;2023-05-10T12:03:29;23.20;68.80
38456;DHT22;24237;50.106;20.014;2023-05-10T12:05:55;23.50;67.90
38456;DHT22;24237;50.106;20.014;2023-05-10T12:08:25;23.30;68.20
38456;DHT22;24237;50.106;20.014;2023-05-10T12:11:04;22.70;68.90
38456;DHT22;24237;50.106;20.014;2023-05-10T12:13:30;22.80;67.20
38456;DHT22;24237;50.106;20.014;2023-05-10T12:15:59;22.30;67.20
38456;DHT22;24237;50.106;20.014;2023-05-10T12:18:25;21.50;69.40
38456;DHT22;24237;50.106;20.014;2023-05-10T12:20:53;22.30;67.90
38456;DHT22;24237;50.106;20.014;2023-05-10T12:23:20;22.30;66.80
38456;DHT22;24237;50.106;20.014;2023-05-10T12:25:46;22.70;67.70
38456;DHT22;24237;50.106;20.014;2023-05-10T12:28:12;23.00;66.70
38456;DHT22;24237;50.106;20.014;2023-05-10T12:30:38;23.10;66.90
38456;DHT22;24237;50.106;20.014;2023-05-10T12:33:11;24.10;67.60
38456;DHT22;24237;50.106;20.014;2023-05-10T12:35:49;25.00;66.10
38456;DHT22;24237;50.106;20.014;2023-05-10T12:38:29;25.50;65.00
38456;DHT22;24237;50.106;20.014;2023-05-10T12:41:00;25.00;64.20
38456;DHT22;24237;50.106;20.014;2023-05-10T12:43:26;25.30;64.10
38456;DHT22;24237;50.106;20.014;2023-05-10T12:45:52;25.80;63.10
38456;DHT22;24237;50.106;20.014;2023-05-10T12:48:18;26.30;63.00
38456;DHT22;24237;50.106;20.014;2023-05-10T12:50:44;25.60;64.10
38456;DHT22;24237;50.106;20.014;2023-05-10T12:53:09;25.90;62.50
38456;DHT22;24237;50.106;20.014;2023-05-10T12:55:35;26.20;61.40
38456;DHT22;24237;50.106;20.014;2023-05-10T12:58:01;26.60;61.70
38456;DHT22;24237;50.106;20.014;2023-05-10T13:00:26;27.00;61.90
38456;DHT22;24237;50.106;20.014;2023-05-10T13:02:52;27.00;60.50
38456;DHT22;24237;50.106;20.014;2023-05-10T13:05:18;27.70;61.20
38456;DHT22;24237;50.106;20.014;2023-05-10T13:07:44;28.90;60.10
38456;DHT22;24237;50.106;20.014;2023-05-10T13:10:17;29.70;58.30
38456;DHT22;24237;50.106;20.014;2023-05-10T13:12:43;29.90;56.90
38456;DHT22;24237;50.106;20.014;2023-05-10T13:15:09;29.50;55.70
38456;DHT22;24237;50.106;20.014;2023-05-10T13:17:35;28.60;55.20
38456;DHT22;24237;50.106;20.014;2023-05-10T13:20:00;28.90;55.70
38456;DHT22;24237;50.106;20.014;2023-05-10T13:22:26;28.80;54.50
38456;DHT22;24237;50.106;20.014;2023-05-10T13:24:52;28.70;54.50
38456;DHT22;24237;50.106;20.014;2023-05-10T13:27:17;29.40;55.30
38456;DHT22;24237;50.106;20.014;2023-05-10T13:29:43;29.50;55.00
38456;DHT22;24237;50.106;20.014;2023-05-10T13:32:08;28.60;55.40
38456;DHT22;24237;50.106;20.014;2023-05-10T13:34:34;28.30;54.80
38456;DHT22;24237;50.106;20.014;2023-05-10T13:37:01;27.50;56.60
38456;DHT22;24237;50.106;20.014;2023-05-10T13:39:26;27.60;55.30
38456;DHT22;24237;50.106;20.014;2023-05-10T13:41:52;27.20;55.70
38456;DHT22;24237;50.106;20.014;2023-05-10T13:44:19;27.40;56.50
38456;DHT22;24237;50.106;20.014;2023-05-10T13:46:45;27.60;56.00
38456;DHT22;24237;50.106;20.014;2023-05-10T13:49:10;28.30;55.20
38456;DHT22;24237;50.106;20.014;2023-05-10T13:51:36;27.60;55.10
38456;DHT22;24237;50.106;20.014;2023-05-10T13:54:02;27.00;55.80
38456;DHT22;24237;50.106;20.014;2023-05-10T13:56:28;26.90;55.50
38456;DHT22;24237;50.106;20.014;2023-05-10T13:58:54;27.00;55.10
38456;DHT22;24237;50.106;20.014;2023-05-10T14:01:20;27.20;55.20
38456;DHT22;24237;50.106;20.014;2023-05-10T14:03:45;27.50;55.40
38456;DHT22;24237;50.106;20.014;2023-05-10T14:06:11;27.90;55.20
38456;DHT22;24237;50.106;20.014;2023-05-10T14:08:37;28.00;54.80
38456;DHT22;24237;50.106;20.014;2023-05-10T14:11:02;28.10;54.60
38456;DHT22;24237;50.106;20.014;2023-05-10T14:13:28;28.20;55.10
38456;DHT22;24237;50.106;20.014;2023-05-10T14:15:54;28.40;55.20
38456;DHT22;24237;50.106;20.014;2023-05-10T14:18:20;28.40;54.50
38456;DHT22;24237;50.106;20.014;2023-05-10T14:20:46;28.70;54.30
38456;DHT22;24237;50.106;20.014;2023-05-10T14:23:12;28.90;53.80
38456;DHT22;24237;50.106;20.014;2023-05-10T14:25:39;29.00;53.30
38456;DHT22;24237;50.106;20.014;2023-05-10T14:28:05;29.20;53.30
38456;DHT22;24237;50.106;20.014;2023-05-10T14:30:31;28.70;53.70
38456;DHT22;24237;50.106;20.014;2023-05-10T14:32:58;28.90;53.60
38456;DHT22;24237;50.106;20.014;2023-05-10T14:35:24;29.50;53.40
38456;DHT22;24237;50.106;20.014;2023-05-10T14:37:49;29.80;53.30
38456;DHT22;24237;50.106;20.014;2023-05-10T14:40:15;28.70;53.00
38456;DHT22;24237;50.106;20.014;2023-05-10T14:42:42;27.40;54.10
38456;DHT22;24237;50.106;20.014;2023-05-10T14:45:09;27.10;54.90
38456;DHT22;24237;50.106;20.014;2023-05-10T14:47:35;27.00;54.50
38456;DHT22;24237;50.106;20.014;2023-05-10T14:50:07;26.90;54.40
38456;DHT22;24237;50.106;20.014;2023-05-10T14:52:33;26.40;54.60
38456;DHT22;24237;50.106;20.014;2023-05-10T14:54:58;26.80;55.10
38456;DHT22;24237;50.106;20.014;2023-05-10T14:57:25;27.20;54.70
38456;DHT22;24237;50.106;20.014;2023-05-10T14:59:51;27.90;54.10
38456;DHT22;24237;50.106;20.014;2023-05-10T15:02:16;28.10;53.60
38456;DHT22;24237;50.106;20.014;2023-05-10T15:04:42;27.80;53.70
38456;DHT22;24237;50.106;20.014;2023-05-10T15:07:28;27.70;53.80
38456;DHT22;24237;50.106;20.014;2023-05-10T15:09:53;27.50;53.90
38456;DHT22;24237;50.106;20.014;2023-05-10T15:12:19;27.10;53.70
38456;DHT22;24237;50.106;20.014;2023-05-10T15:14:45;26.70;54.30
38456;DHT22;24237;50.106;20.014;2023-05-10T15:17:11;26.70;55.00
38456;DHT22;24237;50.106;20.014;2023-05-10T15:19:37;27.00;54.40
38456;DHT22;24237;50.106;20.014;2023-05-10T15:22:04;26.70;54.40
38456;DHT22;24237;50.106;20.014;2023-05-10T15:24:29;26.90;55.20
38456;DHT22;24237;50.106;20.014;2023-05-10T15:26:55;26.80;55.30
38456;DHT22;24237;50.106;20.014;2023-05-10T15:29:21;27.00;54.40
38456;DHT22;24237;50.106;20.014;2023-05-10T15:31:47;27.00;54.20
38456;DHT22;24237;50.106;20.014;2023-05-10T15:34:13;26.70;54.30
38456;DHT22;24237;50.106;20.014;2023-05-10T15:36:39;26.70;54.40
38456;DHT22;24237;50.106;20.014;2023-05-10T15:39:05;27.50;54.20
38456;DHT22;24237;50.106;20.014;2023-05-10T15:41:30;28.00;54.00
38456;DHT22;24237;50.106;20.014;2023-05-10T15:43:57;27.60;54.00
38456;DHT22;24237;50.106;20.014;2023-05-10T15:46:25;27.80;54.10
38456;DHT22;24237;50.106;20.014;2023-05-10T15:48:51;28.60;53.70
38456;DHT22;24237;50.106;20.014;2023-05-10T15:51:17;28.60;53.40
38456;DHT22;24237;50.106;20.014;2023-05-10T15:53:44;27.40;53.70
38456;DHT22;24237;50.106;20.014;2023-05-10T15:56:09;27.10;54.60
38456;DHT22;24237;50.106;20.014;2023-05-10T15:58:37;27.30;53.90